createdAt,value
2019-03-30T00:02:18.155Z,73.72
2019-03-30T00:04:49.338Z,73.75
2019-03-30T00:07:20.452Z,73.75
2019-03-30T00:09:54.457Z,73.78
2019-03-30T00:12:27.757Z,73.80
2019-03-30T00:14:59.790Z,73.87
2019-03-30T00:17:31.394Z,73.95
2019-03-30T00:20:03.265Z,74.16
2019-03-30T00:22:34.288Z,74.35
2019-03-30T00:25:05.250Z,74.47
2019-03-30T00:27:36.108Z,74.52
2019-03-30T00:30:07.830Z,74.62
2019-03-30T00:32:38.646Z,74.87
2019-03-30T00:35:09.403Z,74.90
2019-03-30T00:37:40.136Z,75.20
2019-03-30T00:40:10.911Z,74.99
2019-03-30T00:42:41.605Z,75.26
2019-03-30T00:45:12.762Z,75.47
2019-03-30T00:47:43.486Z,75.53
2019-03-30T00:50:14.292Z,75.77
2019-03-30T00:52:44.960Z,75.68
2019-03-30T00:55:15.695Z,75.61
2019-03-30T00:57:47.345Z,75.76
2019-03-30T01:00:18.229Z,75.43
2019-03-30T01:02:48.986Z,75.40
2019-03-30T01:05:19.624Z,75.31
2019-03-30T01:07:50.372Z,75.36
2019-03-30T01:10:21.129Z,75.41
2019-03-30T01:12:51.892Z,75.33
2019-03-30T01:15:22.513Z,75.18
2019-03-30T01:17:53.263Z,75.19
2019-03-30T01:20:23.898Z,74.87
2019-03-30T01:22:57.325Z,74.94
2019-03-30T01:25:28.039Z,75.32
2019-03-30T01:27:58.752Z,75.37
2019-03-30T01:30:29.399Z,75.19
2019-03-30T01:33:00.096Z,75.43
2019-03-30T01:35:30.742Z,75.48
2019-03-30T01:38:01.463Z,75.45
2019-03-30T01:40:32.136Z,75.34
2019-03-30T01:43:02.832Z,75.22
2019-03-30T01:45:33.603Z,74.79
2019-03-30T01:48:04.403Z,75.14
2019-03-30T01:50:35.139Z,75.21
2019-03-30T01:53:05.830Z,74.83
2019-03-30T01:55:36.526Z,74.82
2019-03-30T01:58:07.226Z,74.92
2019-03-30T02:00:38.368Z,74.63
2019-03-30T02:03:09.078Z,74.32
2019-03-30T02:05:39.729Z,74.38
2019-03-30T02:08:11.536Z,74.55
2019-03-30T02:10:45.441Z,74.65
2019-03-30T02:13:16.177Z,74.54
2019-03-30T02:15:46.846Z,74.57
2019-03-30T02:18:17.535Z,74.66
2019-03-30T02:20:48.940Z,74.59
2019-03-30T02:23:20.718Z,74.72
2019-03-30T02:25:51.375Z,74.69
2019-03-30T02:28:22.080Z,74.38
2019-03-30T02:30:52.744Z,74.29
2019-03-30T02:33:23.428Z,74.43
2019-03-30T02:35:54.087Z,74.68
2019-03-30T02:38:24.762Z,74.65
2019-03-30T02:40:55.504Z,74.73
2019-03-30T02:43:26.242Z,74.57
2019-03-30T02:45:56.876Z,74.51
2019-03-30T02:48:27.568Z,74.50
2019-03-30T02:50:59.492Z,74.41
2019-03-30T02:53:30.146Z,74.46
2019-03-30T02:56:00.782Z,74.37
2019-03-30T02:58:31.455Z,74.36
2019-03-30T03:01:02.101Z,74.38
2019-03-30T03:03:33.341Z,74.47
2019-03-30T03:06:04.396Z,74.54
2019-03-30T03:08:35.099Z,74.27
2019-03-30T03:11:05.758Z,74.75
2019-03-30T03:13:36.481Z,74.42
2019-03-30T03:16:07.222Z,74.50
2019-03-30T03:18:37.951Z,74.72
2019-03-30T03:21:09.039Z,74.65
2019-03-30T03:23:40.016Z,74.55
2019-03-30T03:26:10.802Z,74.58
2019-03-30T03:28:41.512Z,74.64
2019-03-30T03:31:12.222Z,74.69
2019-03-30T03:33:42.954Z,74.84
2019-03-30T03:36:13.587Z,74.57
2019-03-30T03:38:44.274Z,74.76
2019-03-30T03:41:14.913Z,74.61
2019-03-30T03:43:45.588Z,74.80
2019-03-30T03:46:16.606Z,74.77
2019-03-30T03:48:50.315Z,74.77
2019-03-30T03:51:26.062Z,75.12
2019-03-30T03:53:55.898Z,74.85
2019-03-30T03:56:28.500Z,74.99
2019-03-30T03:59:03.220Z,75.23
2019-03-30T04:01:35.786Z,75.07
2019-03-30T04:04:08.584Z,75.30
2019-03-30T04:06:41.434Z,75.28
2019-03-30T04:09:13.706Z,75.30
2019-03-30T04:11:46.414Z,75.10
2019-03-30T04:14:20.392Z,75.17
2019-03-30T04:16:51.109Z,75.28
2019-03-30T04:19:21.792Z,75.60
2019-03-30T04:21:52.472Z,75.65
2019-03-30T04:24:23.158Z,75.81
2019-03-30T04:26:53.811Z,75.85
2019-03-30T04:29:24.494Z,75.74
2019-03-30T04:31:55.147Z,75.82
2019-03-30T04:34:25.899Z,75.77
2019-03-30T04:36:56.641Z,75.93
2019-03-30T04:39:27.331Z,75.97
2019-03-30T04:41:58.009Z,75.99
2019-03-30T04:44:28.699Z,75.86
2019-03-30T04:46:59.366Z,75.84
2019-03-30T04:49:30.068Z,76.20
2019-03-30T04:52:00.777Z,76.12
2019-03-30T04:54:31.613Z,76.13
2019-03-30T04:57:02.398Z,75.99
2019-03-30T04:59:33.086Z,76.05
2019-03-30T05:02:03.771Z,75.91
2019-03-30T05:04:34.475Z,76.04
2019-03-30T05:07:05.076Z,75.80
2019-03-30T05:09:35.863Z,75.58
2019-03-30T05:12:06.469Z,75.98
2019-03-30T05:14:37.235Z,75.78
2019-03-30T05:17:07.870Z,75.76
2019-03-30T05:19:38.645Z,75.63
2019-03-30T05:22:12.826Z,75.52
2019-03-30T05:24:42.806Z,75.86
2019-03-30T05:27:13.511Z,75.74
2019-03-30T05:29:44.164Z,75.63
2019-03-30T05:32:14.811Z,75.66
2019-03-30T05:34:45.502Z,75.48
2019-03-30T05:37:16.359Z,75.34
2019-03-30T05:39:50.317Z,75.14
2019-03-30T05:42:23.770Z,75.03
2019-03-30T05:44:57.656Z,74.84
2019-03-30T05:47:26.903Z,75.34
2019-03-30T05:49:59.928Z,75.14
2019-03-30T05:52:30.584Z,74.86
2019-03-30T05:55:01.315Z,74.57
2019-03-30T05:57:32.060Z,74.23
2019-03-30T06:00:02.831Z,74.21
2019-03-30T06:02:35.820Z,74.07
2019-03-30T06:05:07.154Z,73.85
2019-03-30T06:07:38.250Z,73.68
2019-03-30T06:10:10.065Z,73.51
2019-03-30T06:12:43.464Z,73.40
2019-03-30T06:15:14.126Z,72.96
2019-03-30T06:17:45.077Z,72.76
2019-03-30T06:20:18.787Z,72.67
2019-03-30T06:22:51.209Z,72.64
2019-03-30T06:25:22.168Z,72.19
2019-03-30T06:27:52.854Z,72.17
2019-03-30T06:30:25.052Z,71.95
2019-03-30T06:32:55.738Z,71.62
2019-03-30T06:35:29.850Z,71.46
2019-03-30T06:38:07.506Z,71.21
2019-03-30T06:40:42.122Z,71.02
2019-03-30T06:43:12.887Z,70.78
2019-03-30T06:45:43.566Z,70.61
2019-03-30T06:48:14.386Z,70.38
2019-03-30T06:50:49.874Z,70.30
2019-03-30T06:53:25.008Z,70.08
2019-03-30T06:55:55.706Z,69.89
2019-03-30T06:58:26.396Z,69.71
2019-03-30T07:00:59.370Z,69.42
2019-03-30T07:03:29.728Z,69.20
2019-03-30T07:06:02.710Z,68.95
2019-03-30T07:08:35.557Z,68.74
2019-03-30T07:11:20.208Z,68.50
2019-03-30T07:13:40.588Z,68.25
2019-03-30T07:16:11.401Z,68.14
2019-03-30T07:18:43.913Z,68.27
2019-03-30T07:21:14.601Z,67.49
2019-03-30T07:23:45.316Z,67.54
2019-03-30T07:26:16.007Z,67.60
2019-03-30T07:28:47.278Z,67.22
2019-03-30T07:31:18.217Z,66.88
2019-03-30T07:33:51.720Z,66.84
2019-03-30T07:36:25.176Z,66.61
2019-03-30T07:38:57.978Z,66.09
2019-03-30T07:41:29.189Z,65.73
2019-03-30T07:43:59.911Z,65.41
2019-03-30T07:46:30.653Z,65.09
2019-03-30T07:49:04.443Z,64.69
2019-03-30T07:51:35.572Z,64.13
2019-03-30T07:54:06.360Z,63.67
2019-03-30T07:56:37.348Z,63.42
2019-03-30T07:59:08.105Z,63.33
2019-03-30T08:01:38.832Z,63.10
2019-03-30T08:04:09.713Z,62.79
2019-03-30T08:06:40.444Z,62.98
2019-03-30T08:09:11.732Z,63.11
2019-03-30T08:11:42.415Z,62.36
2019-03-30T08:14:13.135Z,61.90
2019-03-30T08:16:43.922Z,61.85
2019-03-30T08:19:14.599Z,61.81
2019-03-30T08:21:45.331Z,61.05
2019-03-30T08:24:15.997Z,60.80
2019-03-30T08:26:46.721Z,60.18
2019-03-30T08:29:18.199Z,59.96
2019-03-30T08:31:50.149Z,59.58
2019-03-30T08:34:21.995Z,58.62
2019-03-30T08:36:52.678Z,58.46
2019-03-30T08:39:23.385Z,57.80
2019-03-30T08:41:54.045Z,57.79
2019-03-30T08:44:24.718Z,57.84
2019-03-30T08:46:55.467Z,55.92
2019-03-30T08:49:26.168Z,55.53
2019-03-30T08:51:56.904Z,56.00
2019-03-30T08:54:27.610Z,55.35
2019-03-30T08:56:58.517Z,55.80
2019-03-30T08:59:29.277Z,55.47
2019-03-30T09:02:00.179Z,54.38
2019-03-30T09:04:30.983Z,53.99
2019-03-30T09:07:03.271Z,54.85
2019-03-30T09:09:33.999Z,54.28
2019-03-30T09:12:04.803Z,53.46
2019-03-30T09:14:36.591Z,53.55
2019-03-30T09:17:07.258Z,52.87
2019-03-30T09:19:37.938Z,52.29
2019-03-30T09:22:08.655Z,52.46
2019-03-30T09:24:39.344Z,52.99
2019-03-30T09:27:10.014Z,53.34
2019-03-30T09:29:40.752Z,51.51
2019-03-30T09:32:14.770Z,51.98
2019-03-30T09:34:43.847Z,52.52
2019-03-30T09:37:14.566Z,52.78
2019-03-30T09:39:45.369Z,51.97
2019-03-30T09:42:16.130Z,50.26
2019-03-30T09:44:46.859Z,51.18
2019-03-30T09:47:17.659Z,51.31
2019-03-30T09:49:48.440Z,50.80
2019-03-30T09:52:19.271Z,51.10
2019-03-30T09:54:49.942Z,50.31
2019-03-30T09:57:20.877Z,50.41
2019-03-30T09:59:51.568Z,49.80
2019-03-30T10:02:22.261Z,49.02
2019-03-30T10:04:53.044Z,49.60
2019-03-30T10:07:23.825Z,49.47
2019-03-30T10:09:54.511Z,48.93
2019-03-30T10:12:25.142Z,48.52
2019-03-30T10:14:55.838Z,46.03
2019-03-30T10:17:26.545Z,46.01
2019-03-30T10:20:04.111Z,46.04
2019-03-30T10:22:30.164Z,45.16
2019-03-30T10:25:00.930Z,45.45
2019-03-30T10:27:31.549Z,45.30
2019-03-30T10:30:02.282Z,46.11
2019-03-30T10:32:33.002Z,46.22
2019-03-30T10:35:03.663Z,46.81
2019-03-30T10:37:35.324Z,47.36
2019-03-30T10:40:06.774Z,46.93
2019-03-30T10:42:37.506Z,47.86
2019-03-30T10:45:09.958Z,46.55
2019-03-30T10:47:40.816Z,47.31
2019-03-30T10:50:11.633Z,45.72
2019-03-30T10:52:42.282Z,43.45
2019-03-30T10:55:13.934Z,44.50
2019-03-30T10:57:44.684Z,44.28
2019-03-30T11:00:21.330Z,44.71
2019-03-30T11:02:52.058Z,45.64
2019-03-30T11:05:22.822Z,45.53
2019-03-30T11:07:54.564Z,45.86
2019-03-30T11:10:25.297Z,45.33
2019-03-30T11:12:55.979Z,45.62
2019-03-30T11:15:26.650Z,44.52
2019-03-30T11:17:57.342Z,44.57
2019-03-30T11:20:28.070Z,44.88
2019-03-30T11:22:58.768Z,45.18
2019-03-30T11:25:29.694Z,45.40
2019-03-30T11:28:00.389Z,44.75
2019-03-30T11:30:31.163Z,44.47
2019-03-30T11:33:01.938Z,44.64
2019-03-30T11:35:32.566Z,45.47
2019-03-30T11:38:03.274Z,46.12
2019-03-30T11:40:34.035Z,44.93
2019-03-30T11:43:04.686Z,44.75
2019-03-30T11:45:36.930Z,43.51
2019-03-30T11:48:07.802Z,43.04
2019-03-30T11:50:40.184Z,42.98
2019-03-30T11:53:10.919Z,40.98
2019-03-30T11:55:41.662Z,39.96
2019-03-30T11:58:12.655Z,39.20
2019-03-30T12:00:43.383Z,39.06
2019-03-30T12:03:14.218Z,38.85
2019-03-30T12:05:45.493Z,39.28
2019-03-30T12:08:17.314Z,38.89
2019-03-30T12:10:48.782Z,37.91
2019-03-30T12:13:19.475Z,38.27
2019-03-30T12:15:51.589Z,39.02
2019-03-30T12:18:24.520Z,39.27
2019-03-30T12:20:56.596Z,40.06
2019-03-30T12:23:27.268Z,38.11
2019-03-30T12:25:57.949Z,38.62
2019-03-30T12:28:28.610Z,38.43
2019-03-30T12:31:01.934Z,38.60
2019-03-30T12:33:32.840Z,37.57
2019-03-30T12:36:03.546Z,37.49
2019-03-30T12:38:35.064Z,36.45
2019-03-30T12:41:09.623Z,36.59
2019-03-30T12:43:40.512Z,36.80
2019-03-30T12:46:15.880Z,37.52
2019-03-30T12:48:46.998Z,36.58
2019-03-30T12:51:17.964Z,37.46
2019-03-30T12:53:50.818Z,36.66
2019-03-30T12:56:21.883Z,36.75
2019-03-30T12:58:55.556Z,35.98
2019-03-30T13:01:26.979Z,36.59
2019-03-30T13:03:58.978Z,36.83
2019-03-30T13:06:30.307Z,36.93
2019-03-30T13:09:05.457Z,36.18
2019-03-30T13:11:36.265Z,35.61
2019-03-30T13:14:07.091Z,35.54
2019-03-30T13:16:39.317Z,35.44
2019-03-30T13:19:10.565Z,35.57
2019-03-30T13:21:52.299Z,35.31
2019-03-30T13:24:14.025Z,35.77
2019-03-30T13:26:47.639Z,35.31
2019-03-30T13:29:18.676Z,35.43
2019-03-30T13:31:54.736Z,35.64
2019-03-30T13:34:27.811Z,35.32
2019-03-30T13:36:59.265Z,34.76
2019-03-30T13:39:30.665Z,35.05
2019-03-30T13:42:01.798Z,34.77
2019-03-30T13:44:33.407Z,35.54
2019-03-30T13:47:05.258Z,35.37
2019-03-30T13:49:38.771Z,35.02
2019-03-30T13:52:09.615Z,35.36
2019-03-30T13:54:40.426Z,34.98
2019-03-30T13:57:15.445Z,35.16
2019-03-30T13:59:50.097Z,34.20
2019-03-30T14:02:24.640Z,34.29
2019-03-30T14:04:55.874Z,34.52
2019-03-30T14:07:27.512Z,34.05
2019-03-30T14:09:58.853Z,34.06
2019-03-30T14:12:31.185Z,34.64
2019-03-30T14:15:02.324Z,34.40
2019-03-30T14:17:36.311Z,33.93
2019-03-30T14:20:08.168Z,33.52
2019-03-30T14:22:39.458Z,33.09
2019-03-30T14:25:10.584Z,33.21
2019-03-30T14:27:42.453Z,32.97
2019-03-30T14:30:14.437Z,33.20
2019-03-30T14:32:50.056Z,33.89
2019-03-30T14:35:23.126Z,33.89
2019-03-30T14:37:54.338Z,34.01
2019-03-30T14:40:25.548Z,34.15
2019-03-30T14:42:56.726Z,34.36
2019-03-30T14:45:29.515Z,34.16
2019-03-30T14:48:00.544Z,34.21
2019-03-30T14:50:35.962Z,33.91
2019-03-30T14:53:09.840Z,34.24
2019-03-30T14:55:41.046Z,33.80
2019-03-30T14:58:18.963Z,33.87
2019-03-30T15:00:48.393Z,33.62
2019-03-30T15:03:19.371Z,33.82
2019-03-30T15:05:50.453Z,33.85
2019-03-30T15:08:26.056Z,33.95
2019-03-30T15:10:59.456Z,34.01
2019-03-30T15:13:30.490Z,33.71
2019-03-30T15:16:01.484Z,33.64
2019-03-30T15:18:33.839Z,33.84
2019-03-30T15:21:09.477Z,34.18
2019-03-30T15:23:40.589Z,33.83
2019-03-30T15:26:11.752Z,34.11
2019-03-30T15:28:44.401Z,33.96
2019-03-30T15:31:15.469Z,34.23
2019-03-30T15:33:53.559Z,33.90
2019-03-30T15:36:26.464Z,33.90
2019-03-30T15:38:58.246Z,34.12
2019-03-30T15:41:32.219Z,34.74
2019-03-30T15:44:05.057Z,35.13
2019-03-30T15:46:36.819Z,35.20
2019-03-30T15:49:09.804Z,35.08
2019-03-30T15:51:41.870Z,34.73
2019-03-30T15:54:12.847Z,35.05
2019-03-30T15:56:47.655Z,35.83
2019-03-30T15:59:18.778Z,35.98
2019-03-30T16:01:49.767Z,35.97
2019-03-30T16:04:20.685Z,36.31
2019-03-30T16:06:51.675Z,36.78
2019-03-30T16:09:23.226Z,37.00
2019-03-30T16:11:54.134Z,37.12
2019-03-30T16:14:25.258Z,37.04
2019-03-30T16:16:56.115Z,35.71
2019-03-30T16:19:27.139Z,36.21
2019-03-30T16:21:58.374Z,36.55
2019-03-30T16:24:30.191Z,35.85
2019-03-30T16:27:03.378Z,36.21
2019-03-30T16:29:34.507Z,36.90
2019-03-30T16:32:05.510Z,37.23
2019-03-30T16:34:36.536Z,36.89
2019-03-30T16:37:07.739Z,36.24
2019-03-30T16:39:38.800Z,36.16
2019-03-30T16:42:12.321Z,36.09
2019-03-30T16:44:44.081Z,36.18
2019-03-30T16:47:15.035Z,36.53
2019-03-30T16:49:46.082Z,36.21
2019-03-30T16:52:17.563Z,36.09
2019-03-30T16:54:50.653Z,35.84
2019-03-30T16:57:22.683Z,35.83
2019-03-30T16:59:54.067Z,35.72
2019-03-30T17:02:26.454Z,35.40
2019-03-30T17:04:57.441Z,35.27
2019-03-30T17:07:28.407Z,35.20
2019-03-30T17:09:59.241Z,35.09
2019-03-30T17:12:30.163Z,35.07
2019-03-30T17:15:01.091Z,35.16
2019-03-30T17:17:32.325Z,35.45
2019-03-30T17:20:05.105Z,35.87
2019-03-30T17:22:36.106Z,35.98
2019-03-30T17:25:08.195Z,36.11
2019-03-30T17:27:39.275Z,36.37
2019-03-30T17:30:10.698Z,36.92
2019-03-30T17:32:41.787Z,37.19
2019-03-30T17:35:12.513Z,37.37
2019-03-30T17:37:44.609Z,37.53
2019-03-30T17:40:15.659Z,37.83
2019-03-30T17:42:46.625Z,38.31
2019-03-30T17:45:17.855Z,38.58
2019-03-30T17:47:48.838Z,38.72
2019-03-30T17:50:19.964Z,39.04
2019-03-30T17:52:51.404Z,39.22
2019-03-30T17:55:34.104Z,40.25
2019-03-30T17:58:12.962Z,40.63
2019-03-30T18:00:35.653Z,40.45
2019-03-30T18:03:07.461Z,39.97
2019-03-30T18:05:39.956Z,40.82
2019-03-30T18:08:12.075Z,40.71
2019-03-30T18:10:43.035Z,41.07
2019-03-30T18:13:14.575Z,41.61
2019-03-30T18:15:45.370Z,40.97
2019-03-30T18:18:18.316Z,41.47
2019-03-30T18:20:49.051Z,41.24
2019-03-30T18:23:19.890Z,41.71
2019-03-30T18:25:50.641Z,41.77
2019-03-30T18:28:27.256Z,41.77
2019-03-30T18:30:56.122Z,41.93
2019-03-30T18:33:27.173Z,42.33
2019-03-30T18:35:58.584Z,42.81
2019-03-30T18:38:29.944Z,43.19
2019-03-30T18:41:00.819Z,43.49
2019-03-30T18:43:31.958Z,43.71
2019-03-30T18:46:02.987Z,43.96
2019-03-30T18:48:35.722Z,44.38
2019-03-30T18:51:10.148Z,44.57
2019-03-30T18:53:41.336Z,44.74
2019-03-30T18:56:12.342Z,45.22
2019-03-30T18:58:44.686Z,45.23
2019-03-30T19:01:15.471Z,45.39
2019-03-30T19:03:47.041Z,45.38
2019-03-30T19:06:18.231Z,45.72
2019-03-30T19:08:49.205Z,46.06
2019-03-30T19:11:20.274Z,46.20
2019-03-30T19:13:51.640Z,46.56
2019-03-30T19:16:22.661Z,46.46
2019-03-30T19:18:53.980Z,46.83
2019-03-30T19:21:24.912Z,46.67
2019-03-30T19:23:55.840Z,46.89
2019-03-30T19:26:26.728Z,46.86
2019-03-30T19:29:01.605Z,47.11
2019-03-30T19:31:40.376Z,47.23
2019-03-30T19:34:12.034Z,47.00
2019-03-30T19:36:43.099Z,47.26
2019-03-30T19:39:14.282Z,46.99
2019-03-30T19:41:45.632Z,47.00
2019-03-30T19:44:17.028Z,47.33
2019-03-30T19:46:48.952Z,47.25
2019-03-30T19:49:36.636Z,47.78
2019-03-30T19:52:20.633Z,47.42
2019-03-30T19:54:58.169Z,47.37
2019-03-30T19:58:00.617Z,47.62
2019-03-30T20:00:52.490Z,48.07
2019-03-30T20:03:34.384Z,47.95
2019-03-30T20:06:21.435Z,47.74
2019-03-30T20:09:03.246Z,47.74
2019-03-30T20:11:36.910Z,47.85
2019-03-30T20:14:09.266Z,47.76
2019-03-30T20:16:44.545Z,47.95
2019-03-30T20:19:17.421Z,48.06
2019-03-30T20:21:57.299Z,48.50
2019-03-30T20:24:39.149Z,48.15
2019-03-30T20:27:22.971Z,48.03
2019-03-30T20:29:59.151Z,48.11
2019-03-30T20:32:29.861Z,48.33
2019-03-30T20:35:00.675Z,48.58
2019-03-30T20:37:31.560Z,49.20
2019-03-30T20:40:02.424Z,50.25
2019-03-30T20:42:35.536Z,50.87
2019-03-30T20:45:08.066Z,51.34
2019-03-30T20:47:44.342Z,52.04
2019-03-30T20:50:17.034Z,52.80
2019-03-30T20:52:47.777Z,53.27
2019-03-30T20:55:18.506Z,53.90
2019-03-30T20:57:49.210Z,54.57
2019-03-30T21:00:20.370Z,55.24
2019-03-30T21:02:51.221Z,55.66
2019-03-30T21:05:25.035Z,56.11
2019-03-30T21:07:55.872Z,56.24
2019-03-30T21:10:26.856Z,56.24
2019-03-30T21:12:57.540Z,56.76
2019-03-30T21:15:28.492Z,56.83
2019-03-30T21:18:09.084Z,57.19
2019-03-30T21:20:44.543Z,57.63
2019-03-30T21:23:15.333Z,58.23
2019-03-30T21:25:46.060Z,58.03
2019-03-30T21:28:25.121Z,58.18
2019-03-30T21:30:58.671Z,58.68
2019-03-30T21:33:29.499Z,58.40
2019-03-30T21:36:00.335Z,58.65
2019-03-30T21:38:33.391Z,58.58
2019-03-30T21:41:04.831Z,59.18
2019-03-30T21:43:37.381Z,59.49
2019-03-30T21:46:14.038Z,59.30
2019-03-30T21:48:46.802Z,59.86
2019-03-30T21:51:18.002Z,60.05
2019-03-30T21:53:49.990Z,59.94
2019-03-30T21:56:21.611Z,59.75
2019-03-30T21:58:54.033Z,59.99
2019-03-30T22:01:25.873Z,60.06
2019-03-30T22:03:57.046Z,60.32
2019-03-30T22:06:28.399Z,60.18
2019-03-30T22:09:00.652Z,60.76
2019-03-30T22:11:36.158Z,60.91
2019-03-30T22:14:07.926Z,60.87
2019-03-30T22:16:39.309Z,60.98
2019-03-30T22:19:12.525Z,61.17
2019-03-30T22:21:46.475Z,61.19
2019-03-30T22:24:17.921Z,61.18
2019-03-30T22:26:51.903Z,61.31
2019-03-30T22:29:35.715Z,61.45
2019-03-30T22:32:08.943Z,61.64
2019-03-30T22:34:43.628Z,61.68
2019-03-30T22:37:16.655Z,61.71
2019-03-30T22:39:50.591Z,61.76
2019-03-30T22:42:28.070Z,61.52
2019-03-30T22:45:00.505Z,61.52
2019-03-30T22:47:31.876Z,61.75
2019-03-30T22:50:06.511Z,61.88
2019-03-30T22:52:39.157Z,62.32
2019-03-30T22:55:13.145Z,62.46
2019-03-30T22:57:46.277Z,62.85
2019-03-30T23:00:39.621Z,62.98
2019-03-30T23:03:15.874Z,63.15
2019-03-30T23:05:48.985Z,63.27
2019-03-30T23:08:19.750Z,63.36
2019-03-30T23:10:58.251Z,63.42
2019-03-30T23:13:28.998Z,63.58
2019-03-30T23:15:59.862Z,64.13
2019-03-30T23:18:32.960Z,64.01
2019-03-30T23:21:03.721Z,64.16
2019-03-30T23:23:34.379Z,64.38
2019-03-30T23:26:05.111Z,64.26
2019-03-30T23:28:36.088Z,64.44
2019-03-30T23:31:06.856Z,64.46
2019-03-30T23:33:37.612Z,64.66
2019-03-30T23:36:08.503Z,64.83
2019-03-30T23:38:39.447Z,64.46
2019-03-30T23:41:10.130Z,64.58
2019-03-30T23:43:41.338Z,64.69
2019-03-30T23:46:14.742Z,64.89
2019-03-30T23:48:45.571Z,64.90
2019-03-30T23:51:19.465Z,64.64
2019-03-30T23:53:51.262Z,64.67
2019-03-30T23:56:24.962Z,64.50
2019-03-30T23:58:55.838Z,64.29
